createdAt,value
2023-05-23T00:02:13.555Z,100.00
2023-05-23T00:07:16.376Z,100.00
2023-05-23T00:12:17.963Z,100.00
2023-05-23T00:17:19.777Z,100.00
2023-05-23T00:22:21.946Z,100.00
2023-05-23T00:27:23.956Z,100.00
2023-05-23T00:32:25.550Z,100.00
2023-05-23T00:37:28.307Z,100.00
2023-05-23T00:42:29.833Z,100.00
2023-05-23T00:47:32.064Z,100.00
2023-05-23T00:52:34.072Z,100.00
2023-05-23T00:57:40.411Z,100.00
2023-05-23T01:02:45.178Z,100.00
2023-05-23T01:07:47.746Z,100.00
2023-05-23T01:12:58.174Z,100.00
2023-05-23T01:18:08.544Z,100.00
2023-05-23T01:23:19.117Z,100.00
2023-05-23T01:28:26.223Z,100.00
2023-05-23T01:33:28.802Z,100.00
2023-05-23T01:38:30.723Z,100.00
2023-05-23T01:43:32.489Z,100.00
2023-05-23T01:48:35.490Z,100.00
2023-05-23T01:53:37.577Z,100.00
2023-05-23T01:58:39.396Z,100.00
2023-05-23T02:03:40.964Z,100.00
2023-05-23T02:08:43.186Z,100.00
2023-05-23T02:13:44.740Z,100.00
2023-05-23T02:18:47.317Z,100.00
2023-05-23T02:23:48.907Z,100.00
2023-05-23T02:28:51.008Z,100.00
2023-05-23T02:33:53.612Z,100.00
2023-05-23T02:38:55.246Z,100.00
2023-05-23T02:43:56.748Z,100.00
2023-05-23T02:48:58.282Z,100.00
2023-05-23T02:53:59.776Z,100.00
2023-05-23T02:59:01.323Z,100.00
2023-05-23T03:04:03.581Z,100.00
2023-05-23T03:09:05.985Z,100.00
2023-05-23T03:14:07.487Z,100.00
2023-05-23T03:19:09.067Z,100.00
2023-05-23T03:24:10.592Z,100.00
2023-05-23T03:29:12.109Z,100.00
2023-05-23T03:34:13.654Z,100.00
2023-05-23T03:39:15.345Z,100.00
2023-05-23T03:44:16.837Z,100.00
2023-05-23T03:49:18.345Z,100.00
2023-05-23T03:54:19.848Z,100.00
2023-05-23T03:59:21.428Z,100.00
2023-05-23T04:04:25.066Z,100.00
2023-05-23T04:09:26.634Z,100.00
2023-05-23T04:14:28.209Z,100.00
2023-05-23T04:19:30.894Z,100.00
2023-05-23T04:24:32.423Z,100.00
2023-05-23T04:29:35.994Z,100.00
2023-05-23T04:34:38.012Z,100.00
2023-05-23T04:39:39.739Z,100.00
2023-05-23T04:44:41.842Z,100.00
2023-05-23T04:49:43.518Z,100.00
2023-05-23T04:54:46.550Z,100.00
2023-05-23T04:59:48.257Z,100.00
2023-05-23T05:04:49.814Z,100.00
2023-05-23T05:09:51.435Z,100.00
2023-05-23T05:14:54.074Z,100.00
2023-05-23T05:19:55.886Z,100.00
2023-05-23T05:24:57.489Z,100.00
2023-05-23T05:30:04.371Z,100.00
2023-05-23T05:35:08.556Z,100.00
2023-05-23T05:40:10.226Z,100.00
2023-05-23T05:45:11.744Z,100.00
2023-05-23T05:50:13.306Z,100.00
2023-05-23T05:55:14.947Z,100.00
2023-05-23T06:00:18.945Z,100.00
2023-05-23T06:05:20.599Z,100.00
2023-05-23T06:10:22.120Z,100.00
2023-05-23T06:15:23.815Z,100.00
2023-05-23T06:20:25.781Z,100.00
2023-05-23T06:25:27.567Z,100.00
2023-05-23T06:30:29.774Z,100.00
2023-05-23T06:35:31.473Z,100.00
2023-05-23T06:40:33.005Z,100.00
2023-05-23T06:45:35.932Z,100.00
2023-05-23T06:50:37.545Z,100.00
2023-05-23T06:55:39.124Z,100.00
2023-05-23T07:00:40.910Z,100.00
2023-05-23T07:05:42.718Z,99.72
2023-05-23T07:10:44.412Z,98.40
2023-05-23T07:15:46.011Z,97.15
2023-05-23T07:20:47.536Z,95.77
2023-05-23T07:26:01.096Z,96.12
2023-05-23T07:31:03.819Z,95.41
2023-05-23T07:36:05.631Z,95.59
2023-05-23T07:41:11.996Z,95.82
2023-05-23T07:46:14.128Z,95.41
2023-05-23T07:51:15.766Z,94.60
2023-05-23T07:56:17.385Z,93.15
2023-05-23T08:01:19.231Z,91.41
2023-05-23T08:06:20.791Z,90.65
2023-05-23T08:11:22.381Z,91.70
2023-05-23T08:16:24.059Z,91.88
2023-05-23T08:21:25.877Z,90.68
2023-05-23T08:26:30.444Z,89.63
2023-05-23T08:31:33.679Z,90.11
2023-05-23T08:36:37.000Z,89.80
2023-05-23T08:41:39.445Z,89.58
2023-05-23T08:46:46.482Z,88.89
2023-05-23T08:51:52.024Z,87.42
2023-05-23T08:56:53.708Z,87.33
2023-05-23T09:01:56.935Z,87.22
2023-05-23T09:06:59.271Z,87.73
2023-05-23T09:12:01.052Z,86.30
2023-05-23T09:17:04.545Z,84.15
2023-05-23T09:22:06.560Z,85.20
2023-05-23T09:27:08.546Z,81.57
2023-05-23T09:32:13.058Z,82.94
2023-05-23T09:37:19.449Z,81.46
2023-05-23T09:42:24.109Z,82.95
2023-05-23T09:47:26.434Z,81.16
2023-05-23T09:52:28.082Z,81.15
2023-05-23T09:57:30.583Z,81.07
2023-05-23T10:03:12.886Z,80.23
2023-05-23T10:09:03.849Z,74.42
2023-05-23T10:14:09.190Z,69.80
2023-05-23T10:19:19.842Z,67.48
2023-05-23T10:24:22.337Z,71.14
2023-05-23T10:29:25.097Z,72.27
2023-05-23T10:34:38.266Z,72.25
2023-05-23T10:40:14.199Z,67.19
2023-05-23T10:45:16.975Z,70.40
2023-05-23T10:50:34.889Z,66.58
2023-05-23T10:55:37.257Z,65.28
2023-05-23T11:00:39.269Z,66.09
2023-05-23T11:05:47.937Z,69.91
2023-05-23T11:10:53.057Z,71.18
2023-05-23T11:15:55.303Z,71.16
2023-05-23T11:21:01.181Z,67.53
2023-05-23T11:26:02.734Z,68.26
2023-05-23T11:31:04.971Z,68.67
2023-05-23T11:36:07.684Z,68.04
2023-05-23T11:41:09.222Z,69.41
2023-05-23T11:46:11.148Z,69.40
2023-05-23T11:51:13.434Z,67.55
2023-05-23T11:56:15.822Z,68.31
2023-05-23T12:01:17.399Z,68.93
2023-05-23T12:06:19.780Z,70.57
2023-05-23T12:11:23.681Z,70.53
2023-05-23T12:16:25.462Z,71.61
2023-05-23T12:21:49.671Z,71.60
2023-05-23T12:27:10.256Z,70.78
2023-05-23T12:32:11.854Z,70.68
2023-05-23T12:42:18.883Z,71.47
2023-05-23T12:47:20.758Z,69.33
2023-05-23T12:52:22.415Z,70.83
2023-05-23T12:57:23.987Z,73.20
2023-05-23T13:02:25.807Z,72.10
2023-05-23T13:07:27.384Z,72.19
2023-05-23T13:12:29.775Z,72.82
2023-05-23T13:17:31.452Z,71.89
2023-05-23T13:22:33.416Z,72.67
2023-05-23T13:27:35.107Z,72.24
2023-05-23T13:32:36.681Z,72.34
2023-05-23T13:37:38.587Z,70.23
2023-05-23T13:42:40.546Z,69.32
2023-05-23T13:47:42.160Z,71.38
2023-05-23T13:52:46.508Z,71.95
2023-05-23T13:57:49.919Z,70.45
2023-05-23T14:02:51.601Z,69.84
2023-05-23T14:07:53.264Z,69.75
2023-05-23T14:12:55.242Z,68.75
2023-05-23T14:17:57.088Z,67.45
2023-05-23T14:22:58.702Z,67.13
2023-05-23T14:28:00.592Z,68.62
2023-05-23T14:33:02.219Z,70.44
2023-05-23T14:38:03.971Z,71.05
2023-05-23T14:43:05.542Z,66.73
2023-05-23T14:48:07.573Z,68.79
2023-05-23T14:53:09.185Z,70.31
2023-05-23T14:58:10.738Z,68.58
2023-05-23T15:03:12.624Z,70.11
2023-05-23T15:08:14.253Z,70.03
2023-05-23T15:13:16.131Z,68.67
2023-05-23T15:18:31.768Z,68.21
2023-05-23T15:23:39.273Z,67.28
2023-05-23T15:28:40.897Z,67.75
2023-05-23T15:33:42.453Z,68.33
2023-05-23T15:38:44.518Z,67.85
2023-05-23T15:43:46.051Z,66.48
2023-05-23T15:48:47.631Z,67.41
2023-05-23T15:54:00.674Z,68.23
2023-05-23T15:59:03.534Z,68.67
2023-05-23T16:04:05.462Z,68.79
2023-05-23T16:09:07.053Z,69.70
2023-05-23T16:14:08.714Z,70.29
2023-05-23T16:19:10.369Z,68.99
2023-05-23T16:24:14.034Z,69.36
2023-05-23T16:29:15.666Z,70.55
2023-05-23T16:34:17.183Z,71.59
2023-05-23T16:39:18.940Z,70.73
2023-05-23T16:44:20.758Z,70.58
2023-05-23T16:49:22.312Z,71.29
2023-05-23T16:54:23.888Z,71.87
2023-05-23T16:59:25.486Z,71.63
2023-05-23T17:04:27.043Z,71.08
2023-05-23T17:09:28.572Z,71.62
2023-05-23T17:14:30.198Z,72.40
2023-05-23T17:19:31.823Z,72.55
2023-05-23T17:24:33.410Z,72.61
2023-05-23T17:29:35.022Z,72.31
2023-05-23T17:34:36.618Z,72.40
2023-05-23T17:39:38.195Z,73.53
2023-05-23T17:44:40.243Z,74.50
2023-05-23T17:49:41.829Z,74.69
2023-05-23T17:54:43.410Z,75.87
2023-05-23T17:59:44.952Z,75.68
2023-05-23T18:04:46.663Z,74.99
2023-05-23T18:09:48.648Z,75.68
2023-05-23T18:14:51.857Z,76.78
2023-05-23T18:19:53.425Z,76.25
2023-05-23T18:24:55.023Z,75.84
2023-05-23T18:29:56.679Z,76.83
2023-05-23T18:34:58.375Z,77.08
2023-05-23T18:40:00.418Z,77.97
2023-05-23T18:45:02.025Z,78.57
2023-05-23T18:50:03.656Z,78.64
2023-05-23T18:55:05.904Z,78.40
2023-05-23T19:00:09.032Z,78.72
2023-05-23T19:05:11.462Z,78.97
2023-05-23T19:10:13.006Z,79.29
2023-05-23T19:15:14.997Z,79.65
2023-05-23T19:20:20.220Z,79.86
2023-05-23T19:25:21.857Z,80.69
2023-05-23T19:30:24.246Z,80.82
2023-05-23T19:35:26.008Z,81.35
2023-05-23T19:40:27.647Z,82.18
2023-05-23T19:45:29.181Z,83.09
2023-05-23T19:50:30.738Z,83.89
2023-05-23T19:55:33.122Z,84.32
2023-05-23T20:00:34.631Z,84.37
2023-05-23T20:05:36.128Z,84.77
2023-05-23T20:10:37.763Z,85.35
2023-05-23T20:15:40.285Z,86.29
2023-05-23T20:20:42.544Z,87.01
2023-05-23T20:25:44.236Z,86.80
2023-05-23T20:30:46.067Z,85.94
2023-05-23T20:35:48.439Z,86.69
2023-05-23T20:40:52.241Z,87.30
2023-05-23T20:45:54.973Z,88.21
2023-05-23T20:50:57.287Z,89.52
2023-05-23T20:55:59.109Z,90.57
2023-05-23T21:01:00.734Z,91.05
2023-05-23T21:06:02.377Z,91.60
2023-05-23T21:11:03.948Z,92.14
2023-05-23T21:16:06.085Z,93.38
2023-05-23T21:21:07.697Z,94.76
2023-05-23T21:26:09.248Z,96.24
2023-05-23T21:31:12.708Z,97.22
2023-05-23T21:36:14.377Z,98.82
2023-05-23T21:41:15.935Z,100.00
2023-05-23T21:46:19.071Z,100.00
2023-05-23T21:51:20.623Z,100.00
2023-05-23T21:56:22.177Z,100.00
2023-05-23T22:01:23.752Z,100.00
2023-05-23T22:06:25.328Z,100.00
2023-05-23T22:11:33.717Z,100.00
2023-05-23T22:16:41.623Z,100.00
2023-05-23T22:21:43.270Z,100.00
2023-05-23T22:26:44.829Z,100.00
2023-05-23T22:31:47.552Z,100.00
2023-05-23T22:36:49.190Z,100.00
2023-05-23T22:41:51.042Z,100.00
2023-05-23T22:46:52.720Z,100.00
2023-05-23T22:51:54.291Z,100.00
2023-05-23T22:56:55.976Z,100.00
2023-05-23T23:01:57.539Z,100.00
2023-05-23T23:06:59.360Z,100.00
2023-05-23T23:12:01.269Z,100.00
2023-05-23T23:17:03.375Z,100.00
2023-05-23T23:22:05.089Z,100.00
2023-05-23T23:27:06.607Z,100.00
2023-05-23T23:32:08.239Z,100.00
2023-05-23T23:37:09.871Z,100.00
2023-05-23T23:42:11.452Z,100.00
2023-05-23T23:47:13.023Z,100.00
2023-05-23T23:52:14.986Z,100.00
2023-05-23T23:57:16.537Z,100.00
